createdAt,value
2022-07-31T00:00:53.537Z,2.10
2022-07-31T00:03:21.554Z,2.20
2022-07-31T00:05:49.574Z,2.00
2022-07-31T00:08:17.809Z,2.28
2022-07-31T00:10:45.770Z,2.15
2022-07-31T00:13:15.321Z,2.70
2022-07-31T00:15:43.240Z,2.65
2022-07-31T00:18:11.725Z,2.55
2022-07-31T00:20:39.698Z,2.13
2022-07-31T00:23:07.677Z,2.25
2022-07-31T00:25:38.916Z,2.45
2022-07-31T00:28:08.115Z,2.40
2022-07-31T00:30:37.397Z,2.38
2022-07-31T00:33:05.485Z,2.63
2022-07-31T00:35:33.488Z,2.58
2022-07-31T00:38:25.617Z,2.80
2022-07-31T00:40:50.232Z,2.90
2022-07-31T00:43:19.413Z,2.83
2022-07-31T00:45:56.262Z,2.78
2022-07-31T00:48:28.033Z,2.85
2022-07-31T00:50:56.235Z,2.90
2022-07-31T00:53:24.150Z,3.13
2022-07-31T00:55:52.388Z,2.53
2022-07-31T00:58:20.637Z,2.85
2022-07-31T01:00:50.173Z,2.97
2022-07-31T01:03:18.716Z,3.10
2022-07-31T01:05:46.750Z,2.70
2022-07-31T01:08:15.004Z,3.20
2022-07-31T01:10:50.123Z,3.20
2022-07-31T01:13:25.138Z,3.17
2022-07-31T01:15:56.284Z,2.95
2022-07-31T01:18:27.537Z,2.83
2022-07-31T01:20:58.870Z,3.50
2022-07-31T01:23:55.171Z,3.40
2022-07-31T01:26:44.514Z,3.92
2022-07-31T01:29:23.071Z,3.33
2022-07-31T01:31:57.743Z,3.50
2022-07-31T01:34:32.734Z,3.50
2022-07-31T01:37:16.795Z,3.47
2022-07-31T01:39:50.688Z,2.92
2022-07-31T01:42:20.790Z,2.90
2022-07-31T01:44:54.048Z,3.50
2022-07-31T01:47:24.111Z,3.20
2022-07-31T01:49:54.122Z,2.70
2022-07-31T01:52:24.352Z,3.50
2022-07-31T01:54:54.155Z,2.72
2022-07-31T01:57:24.616Z,3.10
2022-07-31T01:59:56.283Z,3.28
2022-07-31T02:02:26.298Z,2.63
2022-07-31T02:04:55.818Z,2.88
2022-07-31T02:07:25.278Z,2.90
2022-07-31T02:09:58.489Z,3.10
2022-07-31T02:12:32.076Z,2.40
2022-07-31T02:15:04.081Z,2.80
2022-07-31T02:17:32.658Z,2.30
2022-07-31T02:20:01.564Z,2.47
2022-07-31T02:22:30.218Z,2.60
2022-07-31T02:24:58.367Z,2.28
2022-07-31T02:27:55.452Z,2.55
2022-07-31T02:30:17.595Z,2.60
2022-07-31T02:32:48.032Z,2.38
2022-07-31T02:35:18.580Z,2.15
2022-07-31T02:37:49.823Z,2.50
2022-07-31T02:40:18.741Z,2.90
2022-07-31T02:42:47.945Z,3.20
2022-07-31T02:45:17.675Z,3.08
2022-07-31T02:47:46.014Z,2.53
2022-07-31T02:50:14.229Z,2.60
2022-07-31T02:52:48.272Z,2.50
2022-07-31T02:55:16.587Z,2.70
2022-07-31T02:57:44.673Z,2.50
2022-07-31T03:00:22.981Z,3.37
2022-07-31T03:02:51.436Z,2.50
2022-07-31T03:05:19.564Z,2.70
2022-07-31T03:07:47.761Z,2.60
2022-07-31T03:10:15.717Z,2.80
2022-07-31T03:12:46.291Z,2.60
2022-07-31T03:15:16.044Z,2.47
2022-07-31T03:17:46.492Z,2.80
2022-07-31T03:20:16.290Z,2.50
2022-07-31T03:22:44.883Z,2.60
2022-07-31T03:25:20.213Z,2.60
2022-07-31T03:27:56.335Z,2.78
2022-07-31T03:30:25.894Z,2.45
2022-07-31T03:32:55.877Z,2.50
2022-07-31T03:35:24.735Z,2.63
2022-07-31T03:37:53.370Z,3.10
2022-07-31T03:40:21.348Z,2.15
2022-07-31T03:42:50.892Z,2.40
2022-07-31T03:45:20.472Z,2.95
2022-07-31T03:47:48.467Z,2.30
2022-07-31T03:50:18.454Z,2.35
2022-07-31T03:52:47.665Z,2.10
2022-07-31T03:55:15.885Z,2.22
2022-07-31T03:57:44.713Z,2.30
2022-07-31T04:00:18.054Z,2.30
2022-07-31T04:02:47.249Z,2.28
2022-07-31T04:05:15.375Z,2.40
2022-07-31T04:07:44.718Z,3.40
2022-07-31T04:10:12.739Z,2.00
2022-07-31T04:12:40.766Z,2.15
2022-07-31T04:15:09.301Z,2.35
2022-07-31T04:17:37.347Z,2.35
2022-07-31T04:20:06.238Z,2.20
2022-07-31T04:22:34.212Z,2.50
2022-07-31T04:25:05.776Z,2.42
2022-07-31T04:27:33.738Z,2.30
2022-07-31T04:30:01.631Z,2.50
2022-07-31T04:32:31.017Z,2.47
2022-07-31T04:34:59.041Z,2.50
2022-07-31T04:37:26.974Z,2.53
2022-07-31T04:39:55.116Z,2.60
2022-07-31T04:42:24.350Z,2.42
2022-07-31T04:44:52.305Z,2.63
2022-07-31T04:47:22.116Z,2.50
2022-07-31T04:49:50.150Z,2.97
2022-07-31T04:52:18.092Z,2.72
2022-07-31T04:54:46.102Z,2.75
2022-07-31T04:57:16.358Z,2.95
2022-07-31T04:59:59.315Z,3.20
2022-07-31T05:02:28.751Z,3.20
2022-07-31T05:04:57.564Z,3.25
2022-07-31T05:07:27.561Z,3.08
2022-07-31T05:09:57.076Z,3.60
2022-07-31T05:12:25.097Z,3.10
2022-07-31T05:14:54.463Z,3.70
2022-07-31T05:17:22.433Z,3.15
2022-07-31T05:19:50.443Z,2.78
2022-07-31T05:22:18.818Z,3.28
2022-07-31T05:24:46.880Z,2.95
2022-07-31T05:27:14.812Z,3.47
2022-07-31T05:29:42.802Z,3.33
2022-07-31T05:32:12.437Z,2.80
2022-07-31T05:34:40.615Z,2.88
2022-07-31T05:37:08.648Z,3.47
2022-07-31T05:39:36.635Z,3.10
2022-07-31T05:42:04.876Z,2.95
2022-07-31T05:44:33.212Z,3.28
2022-07-31T05:47:01.118Z,2.65
2022-07-31T05:49:30.981Z,3.00
2022-07-31T05:51:58.959Z,2.53
2022-07-31T05:54:26.932Z,3.25
2022-07-31T05:56:54.824Z,3.25
2022-07-31T05:59:22.778Z,3.25
2022-07-31T06:01:50.811Z,3.33
2022-07-31T06:04:18.819Z,2.90
2022-07-31T06:06:48.161Z,3.03
2022-07-31T06:09:16.126Z,3.10
2022-07-31T06:11:44.037Z,3.20
2022-07-31T06:14:11.998Z,3.10
2022-07-31T06:16:39.931Z,2.78
2022-07-31T06:19:07.853Z,3.10
2022-07-31T06:21:35.782Z,3.58
2022-07-31T06:24:05.844Z,3.60
2022-07-31T06:26:35.561Z,3.55
2022-07-31T06:29:03.496Z,3.03
2022-07-31T06:31:31.617Z,3.13
2022-07-31T06:33:59.517Z,3.33
2022-07-31T06:36:27.426Z,3.08
2022-07-31T06:38:55.363Z,3.10
2022-07-31T06:41:42.419Z,3.78
2022-07-31T06:44:10.381Z,4.18
2022-07-31T06:46:38.445Z,3.83
2022-07-31T06:49:17.577Z,3.88
2022-07-31T06:51:46.012Z,4.00
2022-07-31T06:54:13.994Z,3.95
2022-07-31T06:56:43.294Z,3.95
2022-07-31T06:59:11.259Z,4.00
2022-07-31T07:01:39.291Z,4.25
2022-07-31T07:04:07.328Z,4.28
2022-07-31T07:06:35.315Z,4.53
2022-07-31T07:09:03.297Z,4.28
2022-07-31T07:11:31.339Z,4.67
2022-07-31T07:14:00.631Z,5.28
2022-07-31T07:16:28.564Z,4.93
2022-07-31T07:18:56.524Z,4.93
2022-07-31T07:21:24.637Z,5.13
2022-07-31T07:23:52.573Z,5.53
2022-07-31T07:26:20.865Z,6.20
2022-07-31T07:28:48.831Z,6.03
2022-07-31T07:31:18.075Z,6.50
2022-07-31T07:33:47.797Z,6.68
2022-07-31T07:36:22.850Z,6.55
2022-07-31T07:38:51.650Z,6.47
2022-07-31T07:41:19.594Z,7.05
2022-07-31T07:43:48.631Z,7.20
2022-07-31T07:46:22.112Z,8.32
2022-07-31T07:48:50.852Z,8.52
2022-07-31T07:51:19.483Z,7.95
2022-07-31T07:53:47.690Z,8.55
2022-07-31T07:56:15.661Z,8.52
2022-07-31T07:58:43.644Z,8.35
2022-07-31T08:01:11.961Z,9.15
2022-07-31T08:03:49.435Z,9.97
2022-07-31T08:06:20.020Z,9.98
2022-07-31T08:08:47.989Z,11.50
2022-07-31T08:11:17.162Z,10.10
2022-07-31T08:13:50.060Z,10.77
2022-07-31T08:16:19.209Z,11.23
2022-07-31T08:18:48.799Z,10.63
2022-07-31T08:21:16.795Z,11.73
2022-07-31T08:23:44.917Z,11.48
2022-07-31T08:26:13.054Z,11.73
2022-07-31T08:28:41.582Z,12.17
2022-07-31T08:31:18.179Z,11.82
2022-07-31T08:33:46.157Z,12.43
2022-07-31T08:36:15.473Z,13.57
2022-07-31T08:38:43.441Z,13.00
2022-07-31T08:41:13.912Z,13.25
2022-07-31T08:43:59.823Z,13.45
2022-07-31T08:46:30.338Z,13.63
2022-07-31T08:48:59.039Z,14.27
2022-07-31T08:51:29.684Z,14.05
2022-07-31T08:53:58.524Z,13.30
2022-07-31T08:56:26.923Z,14.30
2022-07-31T08:58:56.996Z,13.80
2022-07-31T09:01:25.413Z,13.65
2022-07-31T09:03:54.152Z,12.32
2022-07-31T09:06:22.151Z,14.50
2022-07-31T09:08:51.512Z,14.40
2022-07-31T09:11:19.717Z,13.88
2022-07-31T09:14:02.153Z,14.50
2022-07-31T09:16:31.643Z,14.15
2022-07-31T09:19:00.696Z,14.15
2022-07-31T09:21:39.294Z,14.93
2022-07-31T09:24:10.231Z,14.15
2022-07-31T09:26:40.858Z,14.43
2022-07-31T09:29:11.900Z,13.60
2022-07-31T09:31:40.430Z,13.77
2022-07-31T09:34:08.396Z,13.57
2022-07-31T09:36:36.406Z,14.37
2022-07-31T09:39:20.474Z,15.18
2022-07-31T09:42:01.776Z,14.90
2022-07-31T09:44:45.741Z,15.52
2022-07-31T09:47:26.889Z,15.05
2022-07-31T09:49:56.088Z,15.93
2022-07-31T09:52:24.407Z,15.02
2022-07-31T09:55:16.130Z,15.35
2022-07-31T09:57:54.112Z,15.77
2022-07-31T10:00:22.513Z,16.23
2022-07-31T10:02:52.116Z,14.43
2022-07-31T10:05:21.862Z,15.15
2022-07-31T10:07:50.884Z,14.82
2022-07-31T10:10:21.533Z,15.43
2022-07-31T10:12:53.285Z,14.88
2022-07-31T10:15:22.016Z,14.05
2022-07-31T10:17:52.615Z,15.27
2022-07-31T10:20:25.590Z,14.60
2022-07-31T10:22:57.811Z,14.77
2022-07-31T10:25:29.922Z,14.63
2022-07-31T10:27:58.360Z,13.90
2022-07-31T10:30:28.368Z,12.53
2022-07-31T10:32:57.005Z,12.73
2022-07-31T10:35:25.336Z,13.60
2022-07-31T10:37:59.360Z,13.57
2022-07-31T10:40:36.569Z,13.70
2022-07-31T10:43:20.567Z,14.45
2022-07-31T10:45:50.188Z,14.00
2022-07-31T10:48:18.533Z,14.50
2022-07-31T10:50:47.348Z,13.68
2022-07-31T10:53:19.448Z,13.50
2022-07-31T10:55:48.823Z,15.43
2022-07-31T10:58:19.734Z,13.23
2022-07-31T11:00:47.795Z,13.30
2022-07-31T11:03:17.858Z,14.98
2022-07-31T11:06:00.941Z,13.97
2022-07-31T11:08:42.268Z,15.15
2022-07-31T11:11:12.079Z,14.77
2022-07-31T11:13:47.725Z,15.40
2022-07-31T11:16:16.114Z,14.25
2022-07-31T11:18:46.142Z,14.47
2022-07-31T11:21:37.196Z,14.87
2022-07-31T11:24:12.369Z,12.82
2022-07-31T11:26:49.711Z,13.00
2022-07-31T11:29:58.523Z,12.98
2022-07-31T11:32:16.749Z,13.32
2022-07-31T11:34:49.098Z,13.80
2022-07-31T11:37:23.200Z,13.20
2022-07-31T11:39:52.763Z,13.53
2022-07-31T11:42:26.539Z,14.10
2022-07-31T11:45:08.394Z,12.90
2022-07-31T11:48:11.914Z,13.45
2022-07-31T11:50:30.830Z,13.53
2022-07-31T11:53:04.232Z,13.63
2022-07-31T11:55:32.351Z,13.40
2022-07-31T11:58:01.627Z,12.03
2022-07-31T12:00:30.285Z,11.20
2022-07-31T12:03:00.500Z,11.33
2022-07-31T12:05:37.935Z,12.40
2022-07-31T12:08:10.322Z,11.63
2022-07-31T12:10:39.611Z,11.60
2022-07-31T12:13:15.744Z,11.50
2022-07-31T12:15:59.516Z,8.80
2022-07-31T12:18:28.278Z,9.30
2022-07-31T12:20:58.754Z,9.63
2022-07-31T12:23:40.245Z,8.02
2022-07-31T12:26:11.638Z,6.90
2022-07-31T12:28:43.963Z,6.70
2022-07-31T12:31:11.931Z,6.77
2022-07-31T12:33:45.635Z,6.20
2022-07-31T12:36:15.383Z,6.25
2022-07-31T12:38:47.652Z,6.13
2022-07-31T12:41:17.314Z,5.37
2022-07-31T12:43:51.168Z,5.05
2022-07-31T12:46:21.664Z,4.97
2022-07-31T12:48:49.690Z,4.93
2022-07-31T12:51:20.186Z,5.27
2022-07-31T12:54:09.062Z,5.13
2022-07-31T12:56:37.634Z,5.00
2022-07-31T12:59:07.700Z,4.50
2022-07-31T13:01:36.754Z,4.53
2022-07-31T13:04:19.238Z,4.93
2022-07-31T13:06:52.027Z,3.27
2022-07-31T13:09:22.560Z,3.43
2022-07-31T13:11:55.823Z,3.40
2022-07-31T13:14:27.244Z,2.92
2022-07-31T13:16:56.136Z,3.20
2022-07-31T13:19:24.116Z,3.40
2022-07-31T13:21:52.054Z,3.47
2022-07-31T13:24:24.942Z,3.10
2022-07-31T13:26:52.922Z,3.30
2022-07-31T13:29:21.037Z,3.40
2022-07-31T13:31:50.352Z,2.65
2022-07-31T13:34:18.315Z,3.28
2022-07-31T13:36:46.277Z,3.23
2022-07-31T13:39:14.274Z,3.20
2022-07-31T13:41:42.728Z,3.28
2022-07-31T13:44:10.890Z,3.13
2022-07-31T13:46:38.865Z,2.70
2022-07-31T13:49:10.402Z,2.90
2022-07-31T13:51:39.065Z,3.00
2022-07-31T13:54:07.155Z,3.27
2022-07-31T13:56:42.468Z,3.57
2022-07-31T13:59:12.980Z,3.00
2022-07-31T14:02:03.122Z,3.03
2022-07-31T14:04:32.705Z,3.07
2022-07-31T14:07:07.483Z,3.10
2022-07-31T14:09:35.998Z,2.53
2022-07-31T14:12:05.827Z,3.20
2022-07-31T14:14:34.171Z,2.95
2022-07-31T14:17:04.816Z,2.72
2022-07-31T14:19:40.513Z,3.35
2022-07-31T14:22:13.913Z,2.83
2022-07-31T14:24:49.356Z,2.92
2022-07-31T14:27:19.921Z,2.63
2022-07-31T14:29:48.867Z,2.83
2022-07-31T14:32:16.867Z,3.17
2022-07-31T14:34:46.200Z,2.88
2022-07-31T14:37:14.173Z,3.00
2022-07-31T14:39:42.869Z,2.80
2022-07-31T14:42:11.192Z,2.23
2022-07-31T14:44:41.584Z,2.63
2022-07-31T14:47:10.202Z,2.40
2022-07-31T14:50:08.977Z,2.33
2022-07-31T14:52:28.255Z,2.60
2022-07-31T14:54:56.564Z,2.60
2022-07-31T14:57:26.250Z,2.50
2022-07-31T14:59:54.234Z,2.58
2022-07-31T15:02:22.963Z,2.50
2022-07-31T15:04:51.237Z,2.85
2022-07-31T15:07:42.374Z,2.60
2022-07-31T15:10:12.658Z,2.60
2022-07-31T15:12:40.934Z,2.80
2022-07-31T15:15:10.291Z,2.80
2022-07-31T15:17:38.306Z,2.67
2022-07-31T15:20:07.138Z,2.63
2022-07-31T15:22:35.115Z,2.47
2022-07-31T15:25:03.036Z,2.55
2022-07-31T15:27:32.260Z,2.28
2022-07-31T15:30:07.015Z,2.60
2022-07-31T15:32:36.896Z,2.90
2022-07-31T15:35:06.108Z,2.90
2022-07-31T15:37:38.225Z,2.70
2022-07-31T15:40:07.938Z,2.80
2022-07-31T15:42:40.496Z,2.88
2022-07-31T15:45:11.902Z,3.05
2022-07-31T15:47:40.159Z,2.70
2022-07-31T15:50:09.797Z,2.70
2022-07-31T15:52:37.966Z,3.10
2022-07-31T15:55:07.239Z,2.67
2022-07-31T15:57:35.359Z,3.00
2022-07-31T16:00:07.313Z,2.80
2022-07-31T16:02:35.280Z,2.95
2022-07-31T16:05:11.885Z,2.93
2022-07-31T16:08:30.530Z,2.97
2022-07-31T16:10:38.748Z,3.47
2022-07-31T16:13:06.862Z,3.20
2022-07-31T16:15:36.169Z,3.43
2022-07-31T16:18:06.446Z,3.50
2022-07-31T16:20:37.120Z,3.60
2022-07-31T16:23:05.023Z,3.25
2022-07-31T16:25:35.069Z,3.70
2022-07-31T16:28:03.464Z,4.30
2022-07-31T16:30:32.021Z,3.83
2022-07-31T16:33:01.409Z,4.00
2022-07-31T16:35:29.417Z,3.60
2022-07-31T16:37:57.362Z,3.87
2022-07-31T16:40:30.244Z,4.22
2022-07-31T16:43:01.769Z,4.33
2022-07-31T16:45:30.790Z,4.37
2022-07-31T16:47:59.480Z,3.90
2022-07-31T16:50:29.039Z,3.90
2022-07-31T16:52:57.023Z,4.07
2022-07-31T16:55:55.692Z,4.35
2022-07-31T16:58:15.724Z,3.50
2022-07-31T17:00:43.740Z,3.27
2022-07-31T17:03:59.326Z,3.53
2022-07-31T17:06:04.880Z,3.33
2022-07-31T17:08:32.825Z,3.00
2022-07-31T17:11:00.699Z,3.72
2022-07-31T17:13:28.631Z,3.00
2022-07-31T17:15:56.561Z,2.92
2022-07-31T17:18:26.103Z,3.03
2022-07-31T17:20:56.251Z,3.10
2022-07-31T17:23:43.466Z,3.05
2022-07-31T17:26:21.452Z,2.90
2022-07-31T17:28:50.574Z,2.90
2022-07-31T17:31:19.041Z,3.47
2022-07-31T17:33:59.038Z,3.08
2022-07-31T17:36:29.200Z,3.10
2022-07-31T17:38:58.778Z,3.30
2022-07-31T17:41:26.849Z,2.90
2022-07-31T17:43:54.967Z,3.27
2022-07-31T17:47:07.131Z,3.03
2022-07-31T17:49:11.732Z,3.00
2022-07-31T17:51:59.252Z,2.77
2022-07-31T17:54:35.441Z,3.33
2022-07-31T17:57:03.719Z,3.00
2022-07-31T17:59:33.915Z,3.30
2022-07-31T18:02:04.729Z,2.90
2022-07-31T18:04:36.892Z,2.97
2022-07-31T18:07:09.011Z,2.47
2022-07-31T18:09:38.401Z,3.17
2022-07-31T18:12:14.793Z,2.80
2022-07-31T18:14:43.413Z,3.33
2022-07-31T18:17:11.418Z,2.88
2022-07-31T18:19:39.404Z,3.17
2022-07-31T18:22:07.633Z,2.83
2022-07-31T18:24:35.771Z,2.93
2022-07-31T18:27:05.278Z,2.97
2022-07-31T18:29:33.334Z,2.97
2022-07-31T18:32:01.431Z,3.70
2022-07-31T18:34:29.520Z,2.93
2022-07-31T18:36:57.444Z,3.05
2022-07-31T18:39:25.914Z,3.17
2022-07-31T18:41:54.087Z,3.20
2022-07-31T18:44:23.357Z,3.58
2022-07-31T18:46:51.487Z,3.35
2022-07-31T18:50:59.787Z,3.53
2022-07-31T18:52:08.761Z,3.60
2022-07-31T18:54:37.037Z,3.65
2022-07-31T18:57:05.241Z,2.95
2022-07-31T18:59:36.247Z,3.70
2022-07-31T19:02:08.757Z,3.42
2022-07-31T19:04:39.993Z,3.83
2022-07-31T19:07:08.002Z,3.47
2022-07-31T19:09:35.893Z,4.00
2022-07-31T19:12:08.276Z,3.80
2022-07-31T19:14:38.395Z,3.97
2022-07-31T19:17:08.429Z,3.70
2022-07-31T19:19:52.795Z,4.13
2022-07-31T19:22:24.803Z,3.90
2022-07-31T19:24:55.891Z,3.90
2022-07-31T19:27:46.953Z,3.47
2022-07-31T19:30:14.740Z,3.47
2022-07-31T19:32:42.760Z,3.40
2022-07-31T19:35:11.303Z,3.40
2022-07-31T19:37:41.912Z,3.80
2022-07-31T19:40:11.448Z,3.70
2022-07-31T19:42:40.418Z,3.53
2022-07-31T19:45:11.251Z,3.75
2022-07-31T19:47:41.127Z,3.60
2022-07-31T19:50:10.278Z,3.70
2022-07-31T19:52:38.485Z,3.43
2022-07-31T19:55:15.139Z,3.77
2022-07-31T19:57:43.547Z,3.10
2022-07-31T20:00:13.470Z,3.10
2022-07-31T20:02:47.414Z,3.27
2022-07-31T20:05:17.994Z,3.03
2022-07-31T20:07:46.052Z,2.97
2022-07-31T20:10:14.915Z,4.10
2022-07-31T20:12:44.995Z,2.97
2022-07-31T20:15:13.183Z,3.20
2022-07-31T20:17:44.019Z,3.57
2022-07-31T20:20:15.588Z,3.73
2022-07-31T20:22:44.945Z,3.90
2022-07-31T20:25:19.947Z,4.10
2022-07-31T20:27:49.099Z,4.07
2022-07-31T20:30:22.168Z,4.30
2022-07-31T20:32:56.014Z,4.00
2022-07-31T20:35:29.126Z,3.90
2022-07-31T20:38:03.297Z,4.00
2022-07-31T20:40:31.502Z,3.50
2022-07-31T20:42:59.587Z,3.45
2022-07-31T20:45:28.821Z,4.00
2022-07-31T20:48:00.133Z,3.70
2022-07-31T20:50:30.677Z,3.00
2022-07-31T20:53:00.701Z,3.40
2022-07-31T20:55:35.615Z,3.63
2022-07-31T20:58:04.145Z,3.50
2022-07-31T21:00:34.199Z,3.80
2022-07-31T21:03:06.254Z,3.83
2022-07-31T21:05:34.297Z,3.70
2022-07-31T21:08:06.697Z,3.27
2022-07-31T21:10:35.575Z,2.90
2022-07-31T21:13:04.767Z,3.53
2022-07-31T21:15:42.835Z,3.20
2022-07-31T21:18:17.931Z,2.90
2022-07-31T21:20:51.289Z,2.80
2022-07-31T21:23:21.912Z,2.97
2022-07-31T21:25:50.396Z,2.73
2022-07-31T21:28:19.026Z,3.33
2022-07-31T21:30:47.508Z,2.80
2022-07-31T21:33:18.146Z,2.70
2022-07-31T21:35:47.663Z,2.33
2022-07-31T21:38:17.073Z,2.80
2022-07-31T21:40:47.044Z,2.47
2022-07-31T21:43:18.802Z,2.27
2022-07-31T21:45:57.203Z,2.20
2022-07-31T21:48:32.917Z,2.00
2022-07-31T21:51:05.387Z,2.27
2022-07-31T21:53:33.403Z,1.90
2022-07-31T21:56:03.883Z,1.90
2022-07-31T21:58:32.131Z,1.67
2022-07-31T22:01:00.911Z,1.73
2022-07-31T22:03:30.296Z,1.60
2022-07-31T22:06:15.897Z,1.63
2022-07-31T22:08:44.047Z,1.50
2022-07-31T22:11:13.426Z,1.70
2022-07-31T22:13:41.436Z,1.40
2022-07-31T22:16:09.654Z,1.30
2022-07-31T22:18:39.753Z,1.50
2022-07-31T22:21:09.774Z,1.63
2022-07-31T22:23:38.294Z,1.93
2022-07-31T22:26:07.105Z,1.40
2022-07-31T22:28:36.542Z,1.70
2022-07-31T22:31:04.825Z,1.50
2022-07-31T22:33:33.569Z,1.70
2022-07-31T22:36:08.100Z,1.90
2022-07-31T22:38:38.240Z,1.97
2022-07-31T22:41:07.864Z,1.83
2022-07-31T22:44:13.230Z,1.97
2022-07-31T22:46:24.302Z,2.20
2022-07-31T22:48:55.661Z,2.30
2022-07-31T22:51:25.317Z,2.17
2022-07-31T22:53:53.228Z,2.20
2022-07-31T22:56:21.359Z,2.20
2022-07-31T22:58:49.311Z,2.20
2022-07-31T23:01:17.370Z,2.43
2022-07-31T23:03:45.401Z,2.23
2022-07-31T23:06:31.688Z,2.70
2022-07-31T23:09:02.213Z,3.17
2022-07-31T23:11:30.541Z,2.90
2022-07-31T23:13:58.717Z,2.57
2022-07-31T23:16:27.166Z,2.73
2022-07-31T23:18:55.431Z,2.87
2022-07-31T23:21:24.299Z,2.90
2022-07-31T23:23:53.048Z,2.80
2022-07-31T23:26:25.045Z,2.90
2022-07-31T23:28:54.233Z,3.03
2022-07-31T23:31:22.814Z,3.00
2022-07-31T23:33:52.873Z,2.83
2022-07-31T23:36:21.257Z,2.80
2022-07-31T23:38:52.896Z,2.33
2022-07-31T23:41:36.828Z,2.60
2022-07-31T23:44:05.160Z,2.40
2022-07-31T23:46:37.679Z,2.40
2022-07-31T23:49:07.559Z,2.27
2022-07-31T23:51:35.535Z,1.93
2022-07-31T23:54:05.499Z,2.30
2022-07-31T23:56:37.270Z,2.23
2022-07-31T23:59:05.261Z,2.30
